Time;durP1;ratioP1;P1;durP2;ratioP2;P2;SDS_P1;SDS_P2;PMS_P1;PMS_P2;Temp;Humidity;BMP_temperature;BMP_pressure;BME280_temperature;BME280_humidity;BME280_pressure;Samples;Min_cycle;Max_cycle;Signal;HPM_P1;HPM_P2
2021/09/06 00:01:43;;;;;;;18.55;11.82;;;;;;;;;;5032601;28;20072;-64
2021/09/06 00:04:09;;;;;;;20.90;11.70;;;;;;;;;;5031965;28;20112;-64
2021/09/06 00:06:34;;;;;;;20.65;12.00;;;;;;;;;;5032885;28;20033;-63
2021/09/06 00:08:59;;;;;;;19.55;11.82;;;;;;;;;;5033021;28;20060;-63
2021/09/06 00:11:24;;;;;;;20.55;11.57;;;;;;;;;;5032574;28;20025;-63
2021/09/06 00:13:50;;;;;;;19.33;11.98;;;;;;;;;;5029699;28;20113;-64
2021/09/06 00:16:16;;;;;;;20.67;11.93;;;;;;;;;;5013015;28;20030;-63
2021/09/06 00:18:41;;;;;;;23.98;13.52;;;;;;;;;;5013154;28;20659;-64
2021/09/06 00:21:06;;;;;;;18.77;11.90;;;;;;;;;;5012676;28;20046;-64
2021/09/06 00:23:32;;;;;;;22.92;12.88;;;;;;;;;;5013074;28;20022;-63
2021/09/06 00:25:57;;;;;;;19.10;12.73;;;;;;;;;;5012652;28;20036;-63
2021/09/06 00:28:22;;;;;;;17.75;12.30;;;;;;;;;;5011894;28;20380;-63
2021/09/06 00:30:48;;;;;;;20.88;12.80;;;;;;;;;;5044748;28;20069;-64
2021/09/06 00:33:13;;;;;;;21.33;12.48;;;;;;;;;;5012971;28;20131;-63
2021/09/06 00:35:41;;;;;;;22.55;12.70;;;;;;;;;;5012601;28;20030;-64
2021/09/06 00:38:06;;;;;;;20.65;13.07;;;;;;;;;;5012885;28;20109;-64
2021/09/06 00:40:31;;;;;;;20.35;13.30;;;;;;;;;;5012417;28;20049;-64
2021/09/06 00:42:57;;;;;;;30.23;14.00;;;;;;;;;;5013090;28;20025;-63
2021/09/06 00:45:22;;;;;;;22.95;13.88;;;;;;;;;;5012558;28;20049;-63
2021/09/06 00:47:47;;;;;;;22.75;13.93;;;;;;;;;;5012933;28;20022;-63
2021/09/06 00:50:13;;;;;;;21.25;13.52;;;;;;;;;;5012395;28;20358;-64
2021/09/06 00:52:42;;;;;;;21.17;13.60;;;;;;;;;;5015765;28;20475;-63
2021/09/06 00:55:07;;;;;;;22.85;13.77;;;;;;;;;;5019585;28;20021;-64
2021/09/06 00:57:33;;;;;;;20.25;13.15;;;;;;;;;;5036524;28;20020;-63
2021/09/06 00:59:58;;;;;;;21.88;14.18;;;;;;;;;;5035545;28;20041;-63
2021/09/06 01:02:23;;;;;;;20.50;13.45;;;;;;;;;;5034833;28;20140;-63
2021/09/06 01:04:49;;;;;;;26.33;15.60;;;;;;;;;;5036485;28;20021;-64
2021/09/06 01:07:14;;;;;;;30.67;15.32;;;;;;;;;;5036058;28;20476;-63
2021/09/06 01:09:39;;;;;;;27.00;16.55;;;;;;;;;;5036264;28;20064;-63
2021/09/06 01:12:05;;;;;;;28.60;18.00;;;;;;;;;;5035910;28;20045;-64
2021/09/06 01:14:30;;;;;;;25.85;16.63;;;;;;;;;;5036518;28;20021;-64
2021/09/06 01:16:55;;;;;;;28.73;16.30;;;;;;;;;;5035883;28;20511;-63
2021/09/06 01:19:20;;;;;;;23.77;15.18;;;;;;;;;;5034945;28;20452;-64
2021/09/06 01:21:45;;;;;;;23.95;15.13;;;;;;;;;;5035770;28;20376;-64
2021/09/06 01:24:11;;;;;;;23.80;15.05;;;;;;;;;;5036179;28;20027;-63
2021/09/06 01:26:36;;;;;;;27.98;14.73;;;;;;;;;;5034284;28;20117;-64
2021/09/06 01:29:01;;;;;;;23.27;14.40;;;;;;;;;;5035925;28;20383;-63
2021/09/06 01:31:26;;;;;;;30.85;16.63;;;;;;;;;;5035661;28;20034;-64
2021/09/06 01:33:52;;;;;;;28.85;17.55;;;;;;;;;;5036107;28;20466;-63
2021/09/06 01:36:17;;;;;;;25.63;16.10;;;;;;;;;;5035480;28;20436;-63
2021/09/06 01:38:42;;;;;;;25.40;15.90;;;;;;;;;;5035946;28;20074;-63
2021/09/06 01:41:07;;;;;;;26.50;14.82;;;;;;;;;;5035195;28;20108;-64
2021/09/06 01:43:33;;;;;;;27.33;14.80;;;;;;;;;;5034452;28;20375;-63
2021/09/06 01:45:58;;;;;;;25.02;15.60;;;;;;;;;;5035158;28;20029;-63
2021/09/06 01:48:23;;;;;;;23.08;14.73;;;;;;;;;;5035462;28;20031;-63
2021/09/06 01:50:48;;;;;;;22.08;13.80;;;;;;;;;;5035343;28;20108;-64
2021/09/06 01:53:13;;;;;;;24.60;14.63;;;;;;;;;;5035593;28;20116;-64
2021/09/06 01:55:39;;;;;;;20.67;13.73;;;;;;;;;;5035058;28;20130;-63
2021/09/06 01:58:04;;;;;;;22.40;14.10;;;;;;;;;;5035600;28;20530;-64
2021/09/06 02:00:29;;;;;;;23.33;13.30;;;;;;;;;;5034894;28;20415;-64
2021/09/06 02:02:54;;;;;;;21.35;13.30;;;;;;;;;;5035365;28;20017;-64
2021/09/06 02:05:19;;;;;;;22.23;14.35;;;;;;;;;;5034919;28;20042;-64
2021/09/06 02:07:45;;;;;;;20.67;14.32;;;;;;;;;;5035234;28;20013;-64
2021/09/06 02:10:10;;;;;;;23.33;14.45;;;;;;;;;;5034657;28;20053;-64
2021/09/06 02:12:35;;;;;;;25.58;16.08;;;;;;;;;;5034911;28;20033;-63
2021/09/06 02:15:00;;;;;;;23.58;15.75;;;;;;;;;;5033845;28;20032;-63
2021/09/06 02:17:26;;;;;;;23.67;15.90;;;;;;;;;;5034854;28;20030;-63
2021/09/06 02:19:51;;;;;;;25.63;16.52;;;;;;;;;;5034933;28;20014;-63
2021/09/06 02:22:16;;;;;;;30.17;15.82;;;;;;;;;;5034651;28;20140;-64
2021/09/06 02:24:41;;;;;;;26.92;16.13;;;;;;;;;;5034899;28;20465;-63
2021/09/06 02:27:07;;;;;;;26.05;15.82;;;;;;;;;;5034432;28;20507;-63
2021/09/06 02:29:32;;;;;;;25.15;14.82;;;;;;;;;;5035023;28;20464;-65
2021/09/06 02:31:57;;;;;;;26.13;15.13;;;;;;;;;;5033180;28;20029;-63
2021/09/06 02:34:23;;;;;;;25.15;13.45;;;;;;;;;;5034932;28;20029;-63
2021/09/06 02:36:48;;;;;;;21.08;14.02;;;;;;;;;;5033010;28;20084;-63
2021/09/06 02:39:13;;;;;;;24.58;14.88;;;;;;;;;;5034427;28;20017;-63
2021/09/06 02:41:39;;;;;;;22.48;13.63;;;;;;;;;;5034130;28;20072;-63
2021/09/06 02:44:04;;;;;;;23.17;14.23;;;;;;;;;;5034630;28;20052;-63
2021/09/06 02:46:29;;;;;;;27.67;16.65;;;;;;;;;;5034032;28;20125;-63
2021/09/06 02:48:54;;;;;;;28.38;17.02;;;;;;;;;;5034546;28;20526;-63
2021/09/06 02:51:20;;;;;;;26.02;16.55;;;;;;;;;;5033827;28;20038;-63
2021/09/06 02:53:45;;;;;;;28.38;16.67;;;;;;;;;;5033158;28;20034;-63
2021/09/06 02:56:10;;;;;;;28.90;17.50;;;;;;;;;;5033816;28;20029;-63
2021/09/06 02:58:35;;;;;;;27.17;16.45;;;;;;;;;;5034238;28;20036;-63
2021/09/06 03:01:00;;;;;;;22.05;14.27;;;;;;;;;;5032457;28;20028;-62
2021/09/06 03:03:26;;;;;;;24.70;14.35;;;;;;;;;;5033823;28;20033;-62
2021/09/06 03:05:51;;;;;;;24.55;15.40;;;;;;;;;;5033540;28;20030;-62
2021/09/06 03:08:16;;;;;;;28.30;15.65;;;;;;;;;;5033863;28;20112;-62
2021/09/06 03:10:42;;;;;;;25.30;15.05;;;;;;;;;;5032174;28;20065;-62
2021/09/06 03:13:07;;;;;;;23.58;14.63;;;;;;;;;;5034142;28;20030;-62
2021/09/06 03:15:32;;;;;;;24.98;15.60;;;;;;;;;;5033175;28;20025;-62
2021/09/06 03:17:58;;;;;;;24.67;15.63;;;;;;;;;;5034006;28;20013;-63
2021/09/06 03:20:23;;;;;;;25.73;15.65;;;;;;;;;;5032159;28;20519;-62
2021/09/06 03:22:48;;;;;;;26.10;14.40;;;;;;;;;;5033884;28;20484;-62
2021/09/06 03:25:13;;;;;;;28.75;16.15;;;;;;;;;;5033264;28;20064;-63
2021/09/06 03:27:39;;;;;;;25.15;14.88;;;;;;;;;;5033865;28;20032;-62
2021/09/06 03:30:05;;;;;;;25.52;14.40;;;;;;;;;;5033381;28;20353;-62
2021/09/06 03:32:30;;;;;;;21.17;13.55;;;;;;;;;;5033601;28;20029;-64
2021/09/06 03:34:55;;;;;;;20.02;13.13;;;;;;;;;;5033847;28;20017;-62
2021/09/06 03:37:20;;;;;;;26.33;15.15;;;;;;;;;;5032214;28;20049;-62
2021/09/06 03:39:47;;;;;;;27.73;16.05;;;;;;;;;;5032294;28;20025;-64
2021/09/06 03:42:12;;;;;;;24.02;15.32;;;;;;;;;;5033139;28;20377;-63
2021/09/06 03:44:37;;;;;;;24.38;14.27;;;;;;;;;;5032402;28;20021;-62
2021/09/06 03:47:03;;;;;;;24.50;15.60;;;;;;;;;;5033303;28;20038;-62
2021/09/06 03:49:28;;;;;;;24.02;15.55;;;;;;;;;;5033600;28;20025;-63
2021/09/06 03:51:53;;;;;;;33.50;17.40;;;;;;;;;;5033037;28;20449;-63
2021/09/06 03:54:18;;;;;;;30.33;17.00;;;;;;;;;;5032150;28;20021;-63
2021/09/06 03:56:44;;;;;;;27.40;16.98;;;;;;;;;;5033234;28;20155;-63
2021/09/06 03:59:09;;;;;;;24.98;16.00;;;;;;;;;;5033633;28;20334;-63
2021/09/06 04:01:34;;;;;;;30.00;15.95;;;;;;;;;;5033072;28;20099;-63
2021/09/06 04:03:59;;;;;;;27.15;15.52;;;;;;;;;;5033297;28;20018;-63
2021/09/06 04:06:25;;;;;;;25.02;16.13;;;;;;;;;;5033142;28;20120;-63
2021/09/06 04:08:50;;;;;;;23.98;15.15;;;;;;;;;;5032972;28;20126;-63
2021/09/06 04:11:15;;;;;;;27.98;15.77;;;;;;;;;;5032647;28;20044;-63
2021/09/06 04:13:41;;;;;;;24.42;15.55;;;;;;;;;;5033141;28;20032;-63
2021/09/06 04:16:06;;;;;;;31.63;15.98;;;;;;;;;;5032521;28;20025;-63
2021/09/06 04:18:31;;;;;;;25.13;16.08;;;;;;;;;;5033052;28;20028;-63
2021/09/06 04:20:57;;;;;;;30.27;17.15;;;;;;;;;;5032663;28;20042;-63
2021/09/06 04:23:22;;;;;;;25.90;16.08;;;;;;;;;;5032927;28;20017;-63
2021/09/06 04:25:47;;;;;;;31.02;16.02;;;;;;;;;;5031705;28;20113;-63
2021/09/06 04:28:12;;;;;;;31.40;16.83;;;;;;;;;;5032817;28;20022;-63
2021/09/06 04:30:38;;;;;;;27.77;16.02;;;;;;;;;;5032722;28;20487;-63
2021/09/06 04:33:03;;;;;;;26.40;15.82;;;;;;;;;;5031956;28;20036;-63
2021/09/06 04:35:28;;;;;;;25.25;15.38;;;;;;;;;;5032679;28;20506;-63
2021/09/06 04:37:53;;;;;;;27.08;15.52;;;;;;;;;;5032903;28;20028;-63
2021/09/06 04:40:19;;;;;;;21.10;14.02;;;;;;;;;;5032372;28;20027;-63
2021/09/06 04:42:44;;;;;;;25.27;14.80;;;;;;;;;;5033004;28;20017;-63
2021/09/06 04:45:09;;;;;;;25.98;15.32;;;;;;;;;;5032532;28;20079;-63
2021/09/06 04:47:35;;;;;;;22.42;14.65;;;;;;;;;;5032882;28;20062;-63
2021/09/06 04:50:00;;;;;;;25.73;14.70;;;;;;;;;;5032882;28;20464;-63
2021/09/06 04:52:25;;;;;;;23.45;14.40;;;;;;;;;;5032475;28;20511;-63
2021/09/06 04:54:50;;;;;;;23.27;13.98;;;;;;;;;;5032634;28;20076;-63
2021/09/06 04:57:16;;;;;;;24.63;13.88;;;;;;;;;;5032555;28;20041;-63
2021/09/06 04:59:41;;;;;;;30.20;15.05;;;;;;;;;;5032887;28;20025;-63
2021/09/06 05:02:06;;;;;;;24.25;15.10;;;;;;;;;;5032301;28;20025;-63
2021/09/06 05:04:31;;;;;;;29.83;18.08;;;;;;;;;;5032879;28;20022;-64
2021/09/06 05:06:57;;;;;;;27.40;16.08;;;;;;;;;;5032383;28;20044;-63
2021/09/06 05:09:22;;;;;;;27.80;16.40;;;;;;;;;;5031883;28;20052;-63
2021/09/06 05:11:48;;;;;;;25.60;16.35;;;;;;;;;;5032171;28;20038;-63
2021/09/06 05:14:13;;;;;;;25.52;14.55;;;;;;;;;;5032646;28;20468;-63
2021/09/06 05:16:38;;;;;;;25.60;15.55;;;;;;;;;;5032289;28;20038;-64
2021/09/06 05:19:03;;;;;;;24.30;14.23;;;;;;;;;;5032428;28;20029;-64
2021/09/06 05:21:29;;;;;;;30.27;15.38;;;;;;;;;;5031870;28;20157;-63
2021/09/06 05:23:54;;;;;;;26.15;15.30;;;;;;;;;;5032237;28;20046;-63
2021/09/06 05:26:19;;;;;;;24.17;14.45;;;;;;;;;;5031843;28;20488;-64
2021/09/06 05:28:44;;;;;;;29.67;15.45;;;;;;;;;;5032360;28;20053;-64
2021/09/06 05:31:10;;;;;;;24.42;14.98;;;;;;;;;;5032020;28;20034;-63
2021/09/06 05:33:36;;;;;;;26.20;13.75;;;;;;;;;;5032153;28;20347;-64
2021/09/06 05:36:01;;;;;;;21.45;13.75;;;;;;;;;;5030603;28;20029;-64
2021/09/06 05:38:26;;;;;;;22.05;12.80;;;;;;;;;;5034640;28;20029;-64
2021/09/06 05:40:51;;;;;;;21.35;13.05;;;;;;;;;;5035397;28;20028;-64
2021/09/06 05:43:17;;;;;;;19.30;12.18;;;;;;;;;;5036514;28;20427;-64
2021/09/06 05:45:42;;;;;;;27.45;13.70;;;;;;;;;;5034177;28;20477;-64
2021/09/06 05:48:07;;;;;;;18.23;11.63;;;;;;;;;;5035896;28;20025;-64
2021/09/06 05:50:33;;;;;;;14.65;9.88;;;;;;;;;;5035529;28;20044;-64
2021/09/06 05:52:58;;;;;;;17.52;10.50;;;;;;;;;;5035596;28;20064;-63
2021/09/06 05:55:23;;;;;;;15.82;10.07;;;;;;;;;;5035137;28;20053;-63
2021/09/06 05:57:48;;;;;;;17.27;11.10;;;;;;;;;;5035905;28;20460;-63
2021/09/06 06:00:14;;;;;;;19.55;11.18;;;;;;;;;;5034110;28;20541;-63
2021/09/06 06:02:39;;;;;;;16.20;11.35;;;;;;;;;;5035360;28;20535;-63
2021/09/06 06:05:04;;;;;;;15.80;10.50;;;;;;;;;;5034772;28;20032;-64
2021/09/06 06:07:30;;;;;;;15.63;10.20;;;;;;;;;;5035357;28;20022;-64
2021/09/06 06:09:55;;;;;;;18.80;11.40;;;;;;;;;;5035244;28;20049;-63
2021/09/06 06:12:20;;;;;;;17.13;11.23;;;;;;;;;;5033409;28;20057;-63
2021/09/06 06:14:46;;;;;;;16.35;11.10;;;;;;;;;;5035126;28;20022;-64
2021/09/06 06:17:11;;;;;;;13.85;10.13;;;;;;;;;;5034854;28;20073;-63
2021/09/06 06:19:36;;;;;;;15.90;10.75;;;;;;;;;;5035332;28;20379;-63
2021/09/06 06:22:02;;;;;;;15.77;10.98;;;;;;;;;;5034679;28;20052;-64
2021/09/06 06:24:27;;;;;;;15.38;10.88;;;;;;;;;;5034998;28;20021;-64
2021/09/06 06:26:52;;;;;;;14.70;10.73;;;;;;;;;;5034720;28;20103;-64
2021/09/06 06:29:17;;;;;;;15.15;11.02;;;;;;;;;;5035115;28;20027;-63
2021/09/06 06:31:43;;;;;;;17.73;11.63;;;;;;;;;;5034386;28;20116;-63
2021/09/06 06:34:08;;;;;;;18.43;11.27;;;;;;;;;;5035356;28;20033;-63
2021/09/06 06:36:33;;;;;;;19.00;11.48;;;;;;;;;;5034784;28;20298;-64
2021/09/06 06:38:59;;;;;;;17.40;11.27;;;;;;;;;;5035376;28;20021;-64
2021/09/06 06:41:24;;;;;;;20.08;11.40;;;;;;;;;;5034917;28;20119;-64
2021/09/06 06:43:49;;;;;;;16.88;10.88;;;;;;;;;;5033985;28;20017;-64
2021/09/06 06:46:17;;;;;;;19.92;10.95;;;;;;;;;;5033335;28;20079;-64
2021/09/06 06:48:42;;;;;;;18.30;10.50;;;;;;;;;;5034626;28;20494;-65
2021/09/06 06:51:08;;;;;;;16.58;11.38;;;;;;;;;;5033300;28;20029;-64
2021/09/06 06:53:33;;;;;;;20.65;11.10;;;;;;;;;;5033680;28;20124;-64
2021/09/06 06:55:58;;;;;;;20.10;11.13;;;;;;;;;;5034386;28;20056;-64
2021/09/06 06:58:25;;;;;;;20.02;10.30;;;;;;;;;;5034864;28;20121;-63
2021/09/06 07:00:50;;;;;;;17.48;9.88;;;;;;;;;;5034237;28;20029;-64
2021/09/06 07:03:16;;;;;;;21.93;10.80;;;;;;;;;;5034577;28;20048;-64
2021/09/06 07:05:41;;;;;;;18.63;11.10;;;;;;;;;;5033973;28;20263;-64
2021/09/06 07:08:06;;;;;;;19.27;11.05;;;;;;;;;;5033699;28;20017;-64
2021/09/06 07:10:31;;;;;;;17.63;9.57;;;;;;;;;;5033840;28;20327;-64
2021/09/06 07:12:57;;;;;;;21.58;10.98;;;;;;;;;;5032981;28;20640;-64
2021/09/06 07:15:22;;;;;;;23.75;11.25;;;;;;;;;;5032453;28;20033;-64
2021/09/06 07:17:48;;;;;;;18.80;11.43;;;;;;;;;;5016418;28;20141;-64
2021/09/06 07:20:13;;;;;;;19.27;11.55;;;;;;;;;;5033698;28;20105;-64
2021/09/06 07:22:38;;;;;;;20.47;11.67;;;;;;;;;;5033965;28;20031;-64
2021/09/06 07:25:04;;;;;;;22.83;11.73;;;;;;;;;;5033859;28;20266;-64
2021/09/06 07:27:29;;;;;;;23.75;11.57;;;;;;;;;;5034047;28;20093;-64
2021/09/06 07:29:54;;;;;;;18.17;11.13;;;;;;;;;;5034080;28;20460;-64
2021/09/06 07:32:19;;;;;;;27.10;11.65;;;;;;;;;;5033350;28;20037;-63
2021/09/06 07:34:44;;;;;;;28.73;12.15;;;;;;;;;;5033867;28;20017;-64
2021/09/06 07:37:10;;;;;;;27.15;11.43;;;;;;;;;;5032071;28;20034;-64
2021/09/06 07:39:35;;;;;;;20.58;12.63;;;;;;;;;;5032437;28;20026;-64
2021/09/06 07:42:01;;;;;;;25.42;12.95;;;;;;;;;;5032128;28;20041;-64
2021/09/06 07:44:26;;;;;;;24.40;12.00;;;;;;;;;;5032490;28;20055;-64
2021/09/06 07:46:52;;;;;;;25.80;12.38;;;;;;;;;;5033120;28;20030;-64
2021/09/06 07:49:17;;;;;;;23.77;12.35;;;;;;;;;;5033740;28;20120;-64
2021/09/06 07:51:43;;;;;;;22.73;12.63;;;;;;;;;;5033017;28;20049;-64
2021/09/06 07:54:08;;;;;;;23.20;12.80;;;;;;;;;;5033399;28;20026;-64
2021/09/06 07:56:33;;;;;;;18.10;11.40;;;;;;;;;;5031559;28;20034;-64
2021/09/06 07:58:58;;;;;;;25.77;12.27;;;;;;;;;;5033735;28;20259;-64
2021/09/06 08:01:24;;;;;;;18.33;12.57;;;;;;;;;;5032856;28;20041;-64
2021/09/06 08:03:49;;;;;;;24.60;13.40;;;;;;;;;;5033408;28;20025;-64
2021/09/06 08:06:14;;;;;;;23.50;13.55;;;;;;;;;;5032803;28;20442;-63
2021/09/06 08:08:39;;;;;;;18.13;14.02;;;;;;;;;;5033012;28;20076;-64
2021/09/06 08:11:05;;;;;;;19.95;13.90;;;;;;;;;;5032824;28;20061;-64
2021/09/06 08:13:30;;;;;;;24.98;14.05;;;;;;;;;;5033009;28;20048;-64
2021/09/06 08:15:55;;;;;;;23.55;13.48;;;;;;;;;;5032707;28;20030;-64
2021/09/06 08:18:20;;;;;;;20.90;12.67;;;;;;;;;;5033094;28;20052;-64
2021/09/06 08:20:45;;;;;;;25.33;13.85;;;;;;;;;;5032628;28;20294;-64
2021/09/06 08:23:11;;;;;;;25.95;13.73;;;;;;;;;;5032962;28;20029;-64
2021/09/06 08:25:36;;;;;;;23.40;14.45;;;;;;;;;;5032576;28;20029;-64
2021/09/06 08:28:01;;;;;;;25.77;13.90;;;;;;;;;;5032799;28;20018;-64
2021/09/06 08:30:27;;;;;;;26.70;14.70;;;;;;;;;;5032607;28;20028;-64
2021/09/06 08:32:52;;;;;;;20.52;13.57;;;;;;;;;;5032780;28;20060;-64
2021/09/06 08:35:17;;;;;;;26.40;13.43;;;;;;;;;;5031266;28;20021;-64
2021/09/06 08:37:42;;;;;;;25.83;13.13;;;;;;;;;;5032716;28;20433;-64
2021/09/06 08:40:08;;;;;;;31.38;15.25;;;;;;;;;;5032309;28;20456;-64
2021/09/06 08:42:33;;;;;;;23.23;14.00;;;;;;;;;;5031523;28;20164;-64
2021/09/06 08:44:59;;;;;;;28.00;13.52;;;;;;;;;;5032778;28;20116;-64
2021/09/06 08:47:24;;;;;;;28.30;14.60;;;;;;;;;;5014569;28;20037;-64
2021/09/06 08:49:51;;;;;;;29.50;14.23;;;;;;;;;;5032556;28;20037;-64
2021/09/06 08:52:16;;;;;;;22.55;15.00;;;;;;;;;;5032172;28;20447;-64
2021/09/06 08:54:41;;;;;;;23.67;13.38;;;;;;;;;;5032905;28;20026;-64
2021/09/06 08:57:07;;;;;;;34.40;13.30;;;;;;;;;;5032102;28;20034;-64
2021/09/06 08:59:32;;;;;;;27.27;13.90;;;;;;;;;;5030877;28;20053;-64
2021/09/06 09:01:57;;;;;;;27.98;12.68;;;;;;;;;;5032305;28;20033;-64
2021/09/06 09:04:23;;;;;;;35.22;13.23;;;;;;;;;;5031226;28;20029;-64
2021/09/06 09:06:49;;;;;;;31.40;13.93;;;;;;;;;;5032223;28;20133;-64
2021/09/06 09:09:37;;;;;;;36.00;13.85;;;;;;;;;;5032322;28;20400;-64
2021/09/06 09:12:09;;;;;;;39.75;13.38;;;;;;;;;;5031135;28;20433;-64
2021/09/06 09:14:36;;;;;;;41.78;13.70;;;;;;;;;;5036435;28;20069;-64
2021/09/06 09:17:01;;;;;;;42.70;13.65;;;;;;;;;;5034777;28;20029;-64
2021/09/06 09:19:26;;;;;;;41.65;14.02;;;;;;;;;;5036362;28;20036;-64
2021/09/06 09:21:56;;;;;;;43.17;13.55;;;;;;;;;;5034729;28;20036;-64
2021/09/06 09:24:22;;;;;;;54.03;14.05;;;;;;;;;;5036229;28;20542;-64
2021/09/06 09:26:54;;;;;;;47.92;14.00;;;;;;;;;;5035920;28;20060;-64
2021/09/06 09:29:19;;;;;;;55.05;15.00;;;;;;;;;;5036142;28;20494;-64
2021/09/06 09:31:48;;;;;;;49.13;14.27;;;;;;;;;;5035560;28;20037;-65
2021/09/06 09:34:14;;;;;;;49.05;14.82;;;;;;;;;;5036089;28;20026;-64
2021/09/06 09:36:39;;;;;;;52.65;13.73;;;;;;;;;;5035501;28;20040;-64
2021/09/06 09:39:14;;;;;;;34.75;14.48;;;;;;;;;;5036078;28;20025;-64
2021/09/06 09:41:41;;;;;;;41.00;13.40;;;;;;;;;;5034276;28;20051;-64
2021/09/06 09:44:06;;;;;;;45.90;13.48;;;;;;;;;;5035765;28;20024;-65
2021/09/06 09:46:31;;;;;;;37.47;12.93;;;;;;;;;;5035227;28;20033;-64
2021/09/06 09:49:07;;;;;;;35.17;12.30;;;;;;;;;;5035553;28;20022;-64
2021/09/06 09:51:32;;;;;;;36.88;12.48;;;;;;;;;;5035013;28;20032;-64
2021/09/06 09:54:01;;;;;;;30.90;12.10;;;;;;;;;;5035426;28;20029;-65
2021/09/06 09:56:26;;;;;;;31.85;11.98;;;;;;;;;;5035195;28;20045;-65
2021/09/06 09:58:52;;;;;;;41.08;12.13;;;;;;;;;;5035469;28;20384;-64
2021/09/06 10:01:18;;;;;;;35.72;12.18;;;;;;;;;;5035231;28;20113;-64
2021/09/06 10:03:43;;;;;;;27.85;11.40;;;;;;;;;;5034394;28;20105;-65
2021/09/06 10:06:08;;;;;;;31.50;12.27;;;;;;;;;;5033511;28;20064;-64
2021/09/06 10:08:34;;;;;;;38.23;12.17;;;;;;;;;;5035200;28;20274;-65
2021/09/06 10:10:59;;;;;;;26.55;11.32;;;;;;;;;;5033501;28;20278;-64
2021/09/06 10:13:26;;;;;;;34.30;11.77;;;;;;;;;;5033697;28;20029;-65
2021/09/06 10:15:58;;;;;;;25.23;10.88;;;;;;;;;;5034702;28;20645;-64
2021/09/06 10:18:23;;;;;;;28.48;11.13;;;;;;;;;;5035442;28;20423;-65
2021/09/06 10:20:49;;;;;;;24.50;11.70;;;;;;;;;;5034984;28;20060;-65
2021/09/06 10:23:14;;;;;;;22.08;11.48;;;;;;;;;;5033351;28;20021;-65
2021/09/06 10:25:41;;;;;;;25.67;11.13;;;;;;;;;;5016086;28;20089;-65
2021/09/06 10:28:06;;;;;;;25.65;11.10;;;;;;;;;;5035099;28;20025;-65
2021/09/06 10:30:38;;;;;;;21.02;11.38;;;;;;;;;;5034229;28;20025;-65
2021/09/06 10:33:03;;;;;;;25.85;11.05;;;;;;;;;;5034906;28;20431;-65
2021/09/06 10:35:29;;;;;;;19.00;10.40;;;;;;;;;;5033209;28;20129;-65
2021/09/06 10:38:07;;;;;;;29.38;10.57;;;;;;;;;;5034908;28;20397;-65
2021/09/06 10:40:36;;;;;;;17.67;9.93;;;;;;;;;;5034333;28;20030;-65
2021/09/06 10:43:11;;;;;;;20.17;10.25;;;;;;;;;;5034749;28;20096;-65
2021/09/06 10:45:36;;;;;;;20.77;10.07;;;;;;;;;;5034397;28;20026;-65
2021/09/06 10:48:01;;;;;;;21.80;10.43;;;;;;;;;;5033207;28;20030;-64
2021/09/06 10:50:27;;;;;;;16.77;9.70;;;;;;;;;;5034040;28;20262;-65
2021/09/06 10:52:52;;;;;;;14.40;8.77;;;;;;;;;;5034463;28;20029;-65
2021/09/06 10:55:17;;;;;;;15.07;9.60;;;;;;;;;;5033820;28;20294;-65
2021/09/06 10:57:43;;;;;;;22.65;9.40;;;;;;;;;;5034651;28;20021;-65
2021/09/06 11:00:15;;;;;;;19.95;9.18;;;;;;;;;;5034114;28;20440;-64
2021/09/06 11:02:41;;;;;;;15.52;9.60;;;;;;;;;;5034575;28;20330;-64
2021/09/06 11:05:07;;;;;;;15.70;9.10;;;;;;;;;;5033946;28;20312;-64
2021/09/06 11:07:32;;;;;;;21.20;9.25;;;;;;;;;;5033716;28;20025;-64
2021/09/06 11:10:10;;;;;;;13.85;8.52;;;;;;;;;;5033946;28;20553;-64
2021/09/06 11:12:37;;;;;;;20.17;8.57;;;;;;;;;;5014145;28;20434;-65
2021/09/06 11:15:03;;;;;;;18.17;9.50;;;;;;;;;;5014020;28;20052;-64
2021/09/06 11:17:30;;;;;;;15.23;8.18;;;;;;;;;;5014287;28;20277;-64
2021/09/06 11:19:56;;;;;;;16.65;8.32;;;;;;;;;;5014106;28;20076;-64
2021/09/06 11:22:22;;;;;;;14.50;8.80;;;;;;;;;;5013624;28;20384;-64
2021/09/06 11:24:47;;;;;;;17.17;9.15;;;;;;;;;;5014130;28;20022;-64
2021/09/06 11:27:22;;;;;;;16.63;8.52;;;;;;;;;;5013644;28;20049;-64
2021/09/06 11:29:48;;;;;;;16.60;9.30;;;;;;;;;;5014139;28;20018;-64
2021/09/06 11:32:13;;;;;;;19.40;8.82;;;;;;;;;;5013381;28;20450;-64
2021/09/06 11:34:38;;;;;;;23.55;9.30;;;;;;;;;;5013792;28;20057;-64
2021/09/06 11:37:06;;;;;;;23.30;8.98;;;;;;;;;;5013280;28;20030;-64
2021/09/06 11:39:31;;;;;;;20.15;8.60;;;;;;;;;;5012459;28;20376;-64
2021/09/06 11:41:57;;;;;;;17.15;8.73;;;;;;;;;;5013500;28;20078;-64
2021/09/06 11:44:22;;;;;;;14.88;8.43;;;;;;;;;;5013852;28;20384;-64
2021/09/06 11:46:47;;;;;;;16.80;9.00;;;;;;;;;;4995940;28;20049;-64
2021/09/06 11:49:16;;;;;;;14.83;9.00;;;;;;;;;;5012476;28;20018;-65
2021/09/06 11:51:41;;;;;;;20.88;8.23;;;;;;;;;;5013328;28;20275;-64
2021/09/06 11:54:07;;;;;;;21.73;8.50;;;;;;;;;;5012705;28;20037;-64
2021/09/06 11:56:32;;;;;;;24.77;8.50;;;;;;;;;;5011805;28;20256;-64
2021/09/06 11:58:59;;;;;;;20.23;8.27;;;;;;;;;;5013836;28;20453;-64
2021/09/06 12:01:24;;;;;;;21.52;8.30;;;;;;;;;;5013599;28;20428;-64
2021/09/06 12:03:49;;;;;;;18.52;8.65;;;;;;;;;;5013775;28;20014;-64
2021/09/06 12:06:15;;;;;;;13.63;8.43;;;;;;;;;;5013162;28;20030;-64
2021/09/06 12:08:54;;;;;;;16.73;8.18;;;;;;;;;;5013344;28;20050;-64
2021/09/06 12:11:19;;;;;;;21.02;8.02;;;;;;;;;;5013123;28;20034;-64
2021/09/06 12:13:53;;;;;;;18.00;8.68;;;;;;;;;;5013210;28;20359;-63
2021/09/06 12:16:20;;;;;;;19.70;8.50;;;;;;;;;;5012945;28;20054;-63
2021/09/06 12:18:47;;;;;;;14.18;8.55;;;;;;;;;;5013355;28;20025;-66
2021/09/06 12:21:14;;;;;;;14.27;7.78;;;;;;;;;;5013114;28;20040;-66
2021/09/06 12:23:40;;;;;;;17.58;8.63;;;;;;;;;;5013585;28;20026;-66
2021/09/06 12:26:06;;;;;;;15.13;7.82;;;;;;;;;;5011868;28;20109;-66
2021/09/06 12:28:31;;;;;;;11.30;7.85;;;;;;;;;;5013530;28;20064;-65
2021/09/06 12:30:56;;;;;;;12.73;7.80;;;;;;;;;;5012778;28;20054;-65
2021/09/06 12:33:21;;;;;;;19.73;7.30;;;;;;;;;;5013153;28;20036;-65
2021/09/06 12:35:47;;;;;;;16.92;7.75;;;;;;;;;;5012712;28;20031;-65
2021/09/06 12:38:12;;;;;;;18.15;8.27;;;;;;;;;;5013082;28;20097;-65
2021/09/06 12:40:37;;;;;;;18.75;7.28;;;;;;;;;;5012779;28;20061;-65
2021/09/06 12:43:02;;;;;;;11.82;7.63;;;;;;;;;;5013068;28;20465;-65
2021/09/06 12:45:29;;;;;;;12.05;7.70;;;;;;;;;;5012451;28;20499;-64
2021/09/06 12:47:54;;;;;;;15.60;7.45;;;;;;;;;;5012384;28;20052;-65
2021/09/06 12:50:20;;;;;;;12.05;7.18;;;;;;;;;;5012637;28;20472;-65
2021/09/06 12:52:45;;;;;;;13.63;7.63;;;;;;;;;;5012848;28;20583;-65
2021/09/06 12:55:10;;;;;;;15.98;7.32;;;;;;;;;;5012311;28;20014;-65
2021/09/06 12:57:36;;;;;;;12.07;7.28;;;;;;;;;;5012699;28;20113;-65
2021/09/06 13:00:02;;;;;;;12.80;7.07;;;;;;;;;;5012313;28;20017;-65
2021/09/06 13:02:28;;;;;;;16.52;7.90;;;;;;;;;;5012728;28;20449;-65
2021/09/06 13:04:53;;;;;;;13.97;7.93;;;;;;;;;;5011498;28;20029;-65
2021/09/06 13:07:18;;;;;;;16.63;7.60;;;;;;;;;;5012401;28;20270;-65
2021/09/06 13:09:43;;;;;;;16.45;8.13;;;;;;;;;;5010926;28;20275;-65
2021/09/06 13:12:09;;;;;;;15.40;7.63;;;;;;;;;;5012228;28;20128;-65
2021/09/06 13:14:34;;;;;;;13.88;7.93;;;;;;;;;;5012580;28;20064;-65
2021/09/06 13:16:59;;;;;;;13.05;7.28;;;;;;;;;;5011686;28;20104;-65
2021/09/06 13:19:24;;;;;;;12.02;7.47;;;;;;;;;;5012716;28;20025;-65
2021/09/06 13:21:50;;;;;;;11.55;7.30;;;;;;;;;;5012375;28;20030;-65
2021/09/06 13:24:15;;;;;;;14.60;7.85;;;;;;;;;;5012563;28;20104;-65
2021/09/06 13:26:41;;;;;;;13.70;7.93;;;;;;;;;;5012185;28;20060;-65
2021/09/06 13:29:06;;;;;;;14.57;7.50;;;;;;;;;;5012377;28;20431;-65
2021/09/06 13:31:31;;;;;;;12.55;7.68;;;;;;;;;;5012142;28;20034;-65
2021/09/06 13:33:57;;;;;;;13.90;7.57;;;;;;;;;;5011351;28;20038;-65
2021/09/06 13:36:22;;;;;;;11.10;7.63;;;;;;;;;;5012084;28;20408;-65
2021/09/06 13:38:47;;;;;;;10.23;7.50;;;;;;;;;;5012447;28;20376;-65
2021/09/06 13:41:12;;;;;;;15.80;7.70;;;;;;;;;;5011940;28;20030;-65
2021/09/06 13:43:38;;;;;;;13.82;8.20;;;;;;;;;;5012157;28;20032;-65
2021/09/06 13:46:03;;;;;;;15.80;7.67;;;;;;;;;;5011849;28;20030;-65
2021/09/06 13:48:28;;;;;;;21.17;8.10;;;;;;;;;;5012185;28;20264;-65
2021/09/06 13:50:54;;;;;;;14.40;7.60;;;;;;;;;;5011870;28;20026;-65
2021/09/06 13:53:19;;;;;;;21.48;8.18;;;;;;;;;;5012051;28;20034;-65
2021/09/06 13:55:44;;;;;;;17.02;7.75;;;;;;;;;;5010419;28;20026;-65
2021/09/06 13:58:09;;;;;;;16.02;8.13;;;;;;;;;;5012496;28;20058;-65
2021/09/06 14:00:34;;;;;;;17.85;8.32;;;;;;;;;;5015095;28;20472;-65
2021/09/06 14:03:00;;;;;;;14.95;7.75;;;;;;;;;;5015851;28;20022;-65
2021/09/06 14:05:25;;;;;;;16.60;7.72;;;;;;;;;;5015378;28;20033;-65
2021/09/06 14:07:51;;;;;;;14.27;7.70;;;;;;;;;;5014595;28;20053;-65
2021/09/06 14:10:17;;;;;;;15.40;8.13;;;;;;;;;;5014837;28;20054;-64
2021/09/06 14:12:42;;;;;;;13.57;7.53;;;;;;;;;;5015365;28;20041;-65